createdAt,value
2019-05-22T00:01:25.380Z,30.03
2019-05-22T00:04:01.127Z,31.63
2019-05-22T00:06:36.881Z,34.87
2019-05-22T00:09:10.656Z,32.60
2019-05-22T00:11:40.227Z,32.70
2019-05-22T00:14:10.396Z,37.47
2019-05-22T00:16:40.208Z,31.40
2019-05-22T00:19:10.005Z,34.87
2019-05-22T00:21:40.218Z,32.90
2019-05-22T00:24:11.123Z,34.43
2019-05-22T00:26:43.910Z,32.47
2019-05-22T00:29:13.991Z,36.30
2019-05-22T00:31:43.469Z,38.30
2019-05-22T00:34:14.129Z,36.13
2019-05-22T00:36:43.598Z,33.87
2019-05-22T00:39:14.487Z,32.73
2019-05-22T00:41:46.532Z,33.13
2019-05-22T00:44:17.374Z,32.23
2019-05-22T00:46:47.943Z,29.27
2019-05-22T00:49:18.119Z,27.03
2019-05-22T00:52:07.157Z,26.67
2019-05-22T00:54:54.883Z,24.40
2019-05-22T00:57:44.580Z,25.97
2019-05-22T01:00:35.018Z,27.37
2019-05-22T01:03:06.736Z,26.60
2019-05-22T01:05:38.268Z,25.63
2019-05-22T01:08:07.564Z,29.57
2019-05-22T01:10:39.042Z,29.30
2019-05-22T01:13:09.811Z,26.27
2019-05-22T01:15:40.852Z,26.00
2019-05-22T01:18:14.228Z,28.07
2019-05-22T01:20:43.559Z,27.93
2019-05-22T01:23:18.047Z,34.87
2019-05-22T01:25:47.901Z,31.27
2019-05-22T01:28:17.313Z,31.50
2019-05-22T01:31:05.709Z,31.10
2019-05-22T01:33:42.597Z,31.03
2019-05-22T01:36:19.552Z,33.40
2019-05-22T01:38:49.214Z,31.37
2019-05-22T01:41:26.039Z,31.90
2019-05-22T01:43:57.084Z,29.57
2019-05-22T01:46:28.671Z,29.70
2019-05-22T01:49:03.238Z,31.07
2019-05-22T01:51:34.272Z,35.43
2019-05-22T01:54:05.791Z,38.53
2019-05-22T01:56:36.323Z,32.43
2019-05-22T01:59:07.526Z,36.67
2019-05-22T02:01:37.483Z,39.53
2019-05-22T02:04:08.080Z,33.00
2019-05-22T02:06:39.082Z,36.83
2019-05-22T02:09:31.513Z,33.70
2019-05-22T02:12:10.425Z,39.67
2019-05-22T02:14:44.212Z,35.83
2019-05-22T02:17:13.671Z,38.43
2019-05-22T02:19:43.022Z,38.57
2019-05-22T02:22:15.214Z,36.60
2019-05-22T02:24:44.523Z,37.70
2019-05-22T02:27:14.161Z,35.67
2019-05-22T02:29:44.668Z,39.97
2019-05-22T02:32:14.594Z,39.30
2019-05-22T02:34:46.201Z,38.80
2019-05-22T02:37:17.930Z,41.07
2019-05-22T02:39:47.650Z,41.53
2019-05-22T02:42:23.139Z,38.70
2019-05-22T02:44:52.711Z,39.67
2019-05-22T02:47:25.011Z,35.00
2019-05-22T02:49:57.262Z,41.63
2019-05-22T02:52:27.265Z,38.33
2019-05-22T02:54:56.445Z,37.97
2019-05-22T02:57:28.240Z,36.23
2019-05-22T02:59:59.022Z,39.27
2019-05-22T03:02:28.567Z,37.20
2019-05-22T03:05:07.143Z,38.13
2019-05-22T03:07:36.860Z,39.90
2019-05-22T03:10:07.984Z,42.33
2019-05-22T03:12:39.010Z,35.23
2019-05-22T03:15:16.140Z,37.30
2019-05-22T03:17:47.509Z,36.47
2019-05-22T03:20:19.527Z,38.93
2019-05-22T03:25:11.707Z,38.90
2019-05-22T03:27:44.752Z,35.90
2019-05-22T03:30:23.750Z,37.40
2019-05-22T03:32:53.661Z,39.17
2019-05-22T03:35:26.395Z,36.37
2019-05-22T03:37:58.999Z,39.20
2019-05-22T03:40:30.888Z,55.60
2019-05-22T03:43:09.201Z,40.93
2019-05-22T03:45:39.910Z,36.77
2019-05-22T03:48:10.129Z,37.90
2019-05-22T03:50:40.798Z,32.77
2019-05-22T03:53:16.925Z,37.33
2019-05-22T03:55:47.570Z,36.47
2019-05-22T03:58:17.923Z,35.43
2019-05-22T04:00:47.602Z,35.53
2019-05-22T04:03:17.673Z,35.37
2019-05-22T04:05:48.671Z,37.90
2019-05-22T04:08:19.490Z,38.77
2019-05-22T04:10:59.013Z,34.40
2019-05-22T04:13:28.946Z,37.90
2019-05-22T04:15:58.582Z,36.40
2019-05-22T04:18:28.041Z,42.90
2019-05-22T04:20:58.916Z,37.17
2019-05-22T04:23:28.265Z,41.33
2019-05-22T04:25:58.965Z,38.50
2019-05-22T04:28:30.003Z,38.57
2019-05-22T04:31:00.179Z,37.87
2019-05-22T04:33:31.505Z,34.77
2019-05-22T04:36:02.917Z,38.10
2019-05-22T04:38:32.688Z,41.03
2019-05-22T04:41:03.023Z,34.37
2019-05-22T04:43:34.803Z,36.63
2019-05-22T04:46:08.345Z,32.00
2019-05-22T04:48:38.207Z,37.37
2019-05-22T04:51:29.991Z,35.33
2019-05-22T04:54:00.434Z,34.70
2019-05-22T04:56:30.161Z,34.70
2019-05-22T04:59:01.810Z,34.10
2019-05-22T05:01:31.179Z,33.03
2019-05-22T05:04:01.354Z,35.57
2019-05-22T05:06:33.184Z,31.10
2019-05-22T05:09:03.888Z,33.37
2019-05-22T05:11:34.002Z,33.57
2019-05-22T05:14:03.179Z,33.53
2019-05-22T05:16:32.437Z,35.80
2019-05-22T05:19:02.335Z,33.30
2019-05-22T05:21:31.763Z,36.10
2019-05-22T05:24:00.962Z,36.30
2019-05-22T05:26:32.065Z,30.23
2019-05-22T05:29:01.891Z,34.60
2019-05-22T05:31:31.078Z,34.57
2019-05-22T05:34:26.072Z,33.20
2019-05-22T05:36:55.903Z,34.33
2019-05-22T05:40:12.119Z,32.80
2019-05-22T05:42:41.323Z,33.53
2019-05-22T05:45:13.588Z,33.73
2019-05-22T05:47:43.422Z,31.80
2019-05-22T05:50:14.079Z,34.87
2019-05-22T05:52:44.129Z,35.20
2019-05-22T05:55:13.629Z,34.13
2019-05-22T05:58:24.723Z,33.30
2019-05-22T06:01:00.070Z,31.27
2019-05-22T06:03:41.617Z,37.77
2019-05-22T06:07:02.227Z,36.30
2019-05-22T06:09:33.488Z,35.70
2019-05-22T06:12:05.814Z,39.23
2019-05-22T06:14:36.669Z,32.30
2019-05-22T06:17:47.443Z,31.67
2019-05-22T06:20:20.348Z,37.07
2019-05-22T06:23:42.164Z,31.03
2019-05-22T06:26:15.131Z,29.47
2019-05-22T06:28:44.826Z,34.83
2019-05-22T06:31:22.182Z,31.80
2019-05-22T06:33:52.454Z,30.30
2019-05-22T06:36:22.435Z,30.97
2019-05-22T06:39:08.543Z,29.27
2019-05-22T06:41:39.200Z,25.90
2019-05-22T06:44:37.605Z,26.13
2019-05-22T06:47:09.633Z,26.30
2019-05-22T06:49:51.601Z,32.10
2019-05-22T06:52:21.365Z,31.30
2019-05-22T06:54:51.398Z,25.57
2019-05-22T06:57:28.525Z,25.20
2019-05-22T07:00:12.977Z,26.67
2019-05-22T07:02:35.561Z,30.90
2019-05-22T07:05:07.051Z,30.43
2019-05-22T07:07:36.533Z,33.67
2019-05-22T07:10:10.315Z,27.50
2019-05-22T07:12:40.083Z,28.50
2019-05-22T07:15:31.290Z,28.33
2019-05-22T07:18:03.015Z,30.60
2019-05-22T07:20:35.983Z,30.53
2019-05-22T07:23:06.861Z,30.87
2019-05-22T07:25:40.115Z,32.30
2019-05-22T07:28:10.138Z,30.83
2019-05-22T07:30:40.632Z,30.07
2019-05-22T07:33:10.509Z,27.50
2019-05-22T07:36:04.467Z,28.63
2019-05-22T07:38:10.748Z,30.20
2019-05-22T07:40:40.396Z,30.87
2019-05-22T07:43:09.591Z,34.57
2019-05-22T07:45:39.249Z,34.00
2019-05-22T07:48:10.154Z,31.43
2019-05-22T07:50:48.107Z,32.73
2019-05-22T07:53:18.856Z,31.90
2019-05-22T07:55:49.429Z,35.07
2019-05-22T07:58:18.924Z,31.87
2019-05-22T08:01:08.206Z,31.73
2019-05-22T08:03:38.163Z,36.57
2019-05-22T08:06:08.282Z,33.77
2019-05-22T08:08:38.424Z,38.00
2019-05-22T08:11:07.714Z,42.27
2019-05-22T08:13:37.771Z,35.93
2019-05-22T08:16:08.528Z,29.63
2019-05-22T08:18:41.559Z,36.43
2019-05-22T08:21:11.855Z,31.87
2019-05-22T08:23:41.213Z,42.30
2019-05-22T08:26:11.589Z,49.70
2019-05-22T08:28:41.555Z,53.67
2019-05-22T08:31:13.099Z,48.70
2019-05-22T08:33:42.891Z,42.53
2019-05-22T08:36:12.195Z,54.73
2019-05-22T08:38:43.884Z,35.53
2019-05-22T08:41:16.003Z,47.77
2019-05-22T08:44:14.597Z,47.73
2019-05-22T08:46:18.141Z,40.00
2019-05-22T08:48:49.410Z,36.50
2019-05-22T08:51:19.190Z,38.37
2019-05-22T08:53:48.992Z,46.10
2019-05-22T08:56:19.999Z,37.63
2019-05-22T08:58:49.855Z,31.93
2019-05-22T09:01:19.073Z,39.13
2019-05-22T09:03:49.440Z,32.93
2019-05-22T09:06:18.985Z,41.23
2019-05-22T09:08:48.318Z,32.50
2019-05-22T09:11:17.726Z,39.67
2019-05-22T09:13:46.925Z,39.00
2019-05-22T09:16:16.617Z,37.90
2019-05-22T09:18:46.354Z,36.20
2019-05-22T09:21:16.489Z,33.70
2019-05-22T09:23:47.259Z,36.13
2019-05-22T09:26:17.119Z,37.13
2019-05-22T09:28:47.115Z,40.13
2019-05-22T09:31:16.297Z,35.77
2019-05-22T09:33:45.628Z,35.67
2019-05-22T09:36:14.884Z,38.53
2019-05-22T09:38:44.184Z,36.27
2019-05-22T09:41:13.502Z,38.53
2019-05-22T09:43:42.868Z,37.60
2019-05-22T09:46:12.126Z,33.73
2019-05-22T09:48:41.987Z,37.13
2019-05-22T09:51:11.468Z,33.90
2019-05-22T09:53:40.961Z,39.20
2019-05-22T09:56:10.575Z,35.33
2019-05-22T09:59:48.339Z,33.67
2019-05-22T10:02:17.572Z,34.10
2019-05-22T10:04:47.025Z,34.87
2019-05-22T10:07:16.461Z,32.70
2019-05-22T10:09:45.972Z,40.63
2019-05-22T10:12:15.676Z,33.87
2019-05-22T10:14:45.389Z,28.33
2019-05-22T10:17:15.573Z,36.70
2019-05-22T10:19:45.336Z,32.27
2019-05-22T10:22:15.761Z,29.53
2019-05-22T10:24:49.887Z,28.10
2019-05-22T10:27:17.224Z,30.47
2019-05-22T10:29:46.488Z,24.83
2019-05-22T10:32:16.059Z,26.03
2019-05-22T10:34:45.377Z,30.37
2019-05-22T10:37:14.854Z,30.10
2019-05-22T10:39:44.244Z,31.13
2019-05-22T10:42:13.401Z,29.43
2019-05-22T10:44:42.866Z,25.37
2019-05-22T10:47:12.009Z,27.80
2019-05-22T10:49:41.900Z,27.23
2019-05-22T10:52:11.244Z,28.10
2019-05-22T10:54:40.684Z,27.73
2019-05-22T10:57:10.532Z,27.80
2019-05-22T10:59:40.165Z,30.33
2019-05-22T11:02:09.622Z,28.63
2019-05-22T11:04:38.868Z,27.17
2019-05-22T11:07:09.635Z,32.37
2019-05-22T11:09:40.300Z,29.27
2019-05-22T11:12:09.697Z,27.37
2019-05-22T11:14:39.308Z,24.07
2019-05-22T11:17:10.010Z,27.47
2019-05-22T11:19:39.329Z,26.37
2019-05-22T11:22:09.602Z,22.47
2019-05-22T11:24:39.240Z,23.50
2019-05-22T11:27:08.528Z,23.57
2019-05-22T11:29:37.846Z,25.07
2019-05-22T11:32:07.502Z,20.97
2019-05-22T11:34:36.821Z,21.33
2019-05-22T11:37:06.018Z,24.30
2019-05-22T11:39:39.849Z,23.20
2019-05-22T11:42:10.317Z,19.73
2019-05-22T11:44:40.931Z,21.00
2019-05-22T11:47:12.090Z,23.63
2019-05-22T11:49:41.355Z,22.30
2019-05-22T11:52:12.141Z,23.37
2019-05-22T11:54:41.749Z,23.97
2019-05-22T11:57:11.770Z,22.13
2019-05-22T11:59:40.959Z,19.30
2019-05-22T12:02:11.833Z,19.70
2019-05-22T12:04:47.914Z,19.87
2019-05-22T12:07:12.560Z,17.57
2019-05-22T12:09:41.899Z,18.73
2019-05-22T12:12:11.562Z,16.30
2019-05-22T12:14:40.885Z,18.50
2019-05-22T12:17:11.538Z,17.67
2019-05-22T12:19:41.030Z,18.05
2019-05-22T12:22:10.470Z,13.48
2019-05-22T12:24:39.628Z,14.05
2019-05-22T12:27:10.389Z,13.65
2019-05-22T12:29:39.934Z,13.03
2019-05-22T12:32:10.397Z,13.28
2019-05-22T12:34:39.565Z,12.18
2019-05-22T12:37:09.198Z,13.53
2019-05-22T12:39:39.739Z,11.38
2019-05-22T12:42:11.246Z,14.35
2019-05-22T12:44:40.404Z,12.98
2019-05-22T12:47:10.015Z,11.95
2019-05-22T12:49:39.334Z,11.33
2019-05-22T12:52:09.123Z,11.33
2019-05-22T12:54:46.923Z,11.83
2019-05-22T12:57:10.407Z,13.83
2019-05-22T12:59:39.742Z,12.00
2019-05-22T13:02:11.026Z,10.82
2019-05-22T13:04:40.858Z,9.95
2019-05-22T13:07:10.493Z,10.85
2019-05-22T13:09:39.901Z,13.03
2019-05-22T13:12:12.893Z,10.30
2019-05-22T13:14:42.132Z,10.28
2019-05-22T13:17:12.612Z,10.43
2019-05-22T13:19:42.687Z,9.70
2019-05-22T13:22:15.137Z,10.45
2019-05-22T13:24:45.015Z,9.70
2019-05-22T13:27:17.768Z,11.28
2019-05-22T13:29:48.278Z,12.28
2019-05-22T13:32:19.944Z,15.70
2019-05-22T13:34:49.202Z,11.05
2019-05-22T13:37:18.585Z,12.07
2019-05-22T13:39:47.764Z,9.00
2019-05-22T13:42:17.236Z,9.50
2019-05-22T13:44:47.192Z,10.93
2019-05-22T13:47:17.237Z,14.28
2019-05-22T13:49:46.439Z,12.18
2019-05-22T13:52:16.141Z,10.38
2019-05-22T13:54:45.919Z,7.95
2019-05-22T13:57:15.575Z,10.70
2019-05-22T13:59:45.067Z,9.65
2019-05-22T14:02:14.797Z,10.15
2019-05-22T14:04:44.493Z,10.65
2019-05-22T14:07:14.358Z,10.93
2019-05-22T14:09:44.055Z,9.88
2019-05-22T14:12:13.716Z,9.63
2019-05-22T14:14:43.922Z,9.58
2019-05-22T14:17:13.183Z,10.80
2019-05-22T14:19:42.660Z,10.40
2019-05-22T14:22:11.974Z,8.40
2019-05-22T14:24:41.148Z,8.80
2019-05-22T14:27:10.376Z,9.33
2019-05-22T14:29:40.110Z,10.90
2019-05-22T14:32:11.377Z,8.48
2019-05-22T14:34:40.961Z,8.13
2019-05-22T14:37:15.452Z,8.43
2019-05-22T14:39:47.331Z,7.47
2019-05-22T14:42:17.069Z,10.50
2019-05-22T14:44:46.638Z,9.10
2019-05-22T14:47:16.733Z,10.90
2019-05-22T14:49:46.143Z,7.78
2019-05-22T14:52:15.837Z,6.10
2019-05-22T14:54:44.983Z,8.38
2019-05-22T14:57:15.088Z,8.68
2019-05-22T14:59:44.288Z,6.97
2019-05-22T15:02:14.132Z,5.35
2019-05-22T15:04:43.499Z,5.92
2019-05-22T15:07:13.558Z,6.40
2019-05-22T15:09:42.896Z,7.12
2019-05-22T15:12:12.406Z,8.33
2019-05-22T15:14:41.709Z,10.45
2019-05-22T15:17:11.585Z,8.58
2019-05-22T15:19:40.784Z,8.15
2019-05-22T15:22:10.922Z,7.83
2019-05-22T15:24:40.309Z,7.92
2019-05-22T15:27:10.509Z,8.55
2019-05-22T15:29:39.784Z,7.60
2019-05-22T15:32:10.577Z,9.48
2019-05-22T15:34:39.799Z,9.23
2019-05-22T15:37:11.148Z,10.55
2019-05-22T15:39:40.820Z,8.98
2019-05-22T15:42:13.490Z,10.10
2019-05-22T15:44:42.954Z,11.55
2019-05-22T15:47:12.150Z,9.63
2019-05-22T15:49:44.824Z,21.00
2019-05-22T15:52:16.742Z,14.38
2019-05-22T15:54:46.325Z,11.22
2019-05-22T15:57:17.802Z,10.80
2019-05-22T15:59:47.623Z,14.20
2019-05-22T16:02:21.284Z,11.83
2019-05-22T16:04:50.773Z,9.88
2019-05-22T16:07:20.087Z,12.63
2019-05-22T16:09:50.086Z,13.22
2019-05-22T16:12:19.653Z,11.80
2019-05-22T16:14:49.868Z,12.13
2019-05-22T16:17:20.818Z,14.95
2019-05-22T16:19:50.357Z,12.43
2019-05-22T16:22:19.677Z,14.45
2019-05-22T16:24:49.210Z,14.80
2019-05-22T16:27:19.783Z,13.25
2019-05-22T16:29:49.382Z,17.45
2019-05-22T16:32:19.142Z,13.95
2019-05-22T16:34:48.823Z,12.88
2019-05-22T16:37:18.605Z,14.93
2019-05-22T16:39:50.503Z,12.07
2019-05-22T16:42:19.344Z,11.22
2019-05-22T16:44:49.224Z,11.05
2019-05-22T16:47:21.673Z,10.82
2019-05-22T16:49:53.583Z,10.45
2019-05-22T16:52:25.774Z,12.07
2019-05-22T16:54:55.170Z,13.75
2019-05-22T16:57:25.490Z,12.30
2019-05-22T16:59:55.163Z,11.60
2019-05-22T17:02:25.868Z,13.72
2019-05-22T17:04:56.151Z,11.60
2019-05-22T17:07:28.136Z,12.60
2019-05-22T17:09:57.231Z,12.07
2019-05-22T17:12:27.300Z,10.53
2019-05-22T17:14:56.918Z,11.40
2019-05-22T17:17:26.247Z,12.05
2019-05-22T17:19:55.720Z,11.35
2019-05-22T17:22:26.133Z,12.05
2019-05-22T17:24:55.631Z,10.82
2019-05-22T17:27:25.139Z,11.85
2019-05-22T17:29:55.384Z,9.95
2019-05-22T17:32:26.557Z,10.08
2019-05-22T17:34:56.467Z,9.85
2019-05-22T17:37:26.581Z,9.28
2019-05-22T17:39:56.027Z,9.78
2019-05-22T17:42:27.154Z,9.53
2019-05-22T17:44:57.677Z,9.83
2019-05-22T17:47:27.801Z,9.40
2019-05-22T17:49:59.307Z,10.90
2019-05-22T17:52:29.357Z,10.20
2019-05-22T17:54:59.428Z,10.18
2019-05-22T17:57:29.573Z,10.80
2019-05-22T17:59:59.251Z,10.80
2019-05-22T18:02:37.623Z,10.88
2019-05-22T18:05:07.843Z,12.95
2019-05-22T18:07:38.659Z,11.38
2019-05-22T18:10:09.312Z,12.63
2019-05-22T18:12:39.182Z,11.60
2019-05-22T18:15:09.778Z,11.35
2019-05-22T18:17:40.605Z,10.72
2019-05-22T18:20:12.548Z,12.93
2019-05-22T18:22:42.512Z,15.20
2019-05-22T18:25:13.047Z,11.60
2019-05-22T18:27:42.542Z,12.70
2019-05-22T18:30:12.657Z,13.20
2019-05-22T18:32:42.816Z,12.07
2019-05-22T18:35:14.611Z,12.33
2019-05-22T18:37:44.056Z,12.58
2019-05-22T18:40:15.158Z,13.18
2019-05-22T18:42:44.813Z,13.53
2019-05-22T18:45:14.412Z,13.65
2019-05-22T18:47:44.159Z,14.07
2019-05-22T18:50:14.646Z,13.37
2019-05-22T18:52:47.405Z,16.47
2019-05-22T18:55:17.273Z,14.10
2019-05-22T18:57:46.979Z,13.53
2019-05-22T19:00:19.554Z,15.80
2019-05-22T19:02:48.827Z,15.00
2019-05-22T19:05:21.540Z,15.20
2019-05-22T19:07:51.506Z,16.13
2019-05-22T19:10:21.255Z,16.07
2019-05-22T19:12:50.539Z,15.57
2019-05-22T19:15:20.704Z,15.97
2019-05-22T19:17:50.207Z,13.33
2019-05-22T19:20:19.607Z,15.70
2019-05-22T19:22:59.493Z,17.40
2019-05-22T19:25:20.556Z,14.00
2019-05-22T19:27:50.084Z,38.37
2019-05-22T19:30:20.638Z,15.93
2019-05-22T19:32:51.168Z,15.37
2019-05-22T19:35:20.731Z,14.43
2019-05-22T19:37:50.186Z,15.30
2019-05-22T19:40:19.964Z,13.47
2019-05-22T19:42:49.748Z,17.10
2019-05-22T19:45:20.772Z,16.50
2019-05-22T19:47:51.940Z,15.77
2019-05-22T19:50:23.875Z,15.80
2019-05-22T19:52:57.626Z,14.30
2019-05-22T19:55:30.004Z,14.70
2019-05-22T19:57:59.832Z,12.43
2019-05-22T20:00:30.419Z,17.13
2019-05-22T20:02:59.941Z,14.67
2019-05-22T20:05:29.780Z,15.63
2019-05-22T20:07:59.212Z,15.70
2019-05-22T20:10:28.412Z,13.93
2019-05-22T20:12:57.724Z,17.60
2019-05-22T20:15:27.936Z,18.07
2019-05-22T20:17:57.360Z,15.57
2019-05-22T20:20:27.224Z,16.33
2019-05-22T20:22:58.175Z,15.40
2019-05-22T20:25:28.194Z,13.17
2019-05-22T20:27:59.584Z,16.87
2019-05-22T20:30:29.656Z,16.83
2019-05-22T20:32:58.889Z,13.60
2019-05-22T20:35:29.599Z,16.23
2019-05-22T20:38:00.537Z,14.13
2019-05-22T20:40:30.197Z,14.37
2019-05-22T20:42:59.954Z,16.87
2019-05-22T20:45:29.507Z,14.60
2019-05-22T20:48:14.495Z,16.83
2019-05-22T20:50:44.093Z,17.23
2019-05-22T20:53:16.151Z,14.67
2019-05-22T20:55:46.536Z,14.70
2019-05-22T20:58:17.668Z,16.07
2019-05-22T21:00:49.251Z,18.33
2019-05-22T21:03:18.812Z,18.57
2019-05-22T21:05:49.134Z,17.63
2019-05-22T21:08:20.147Z,16.80
2019-05-22T21:10:50.101Z,16.00
2019-05-22T21:13:20.197Z,17.90
2019-05-22T21:15:52.225Z,16.17
2019-05-22T21:18:25.798Z,16.47
2019-05-22T21:20:56.122Z,14.60
2019-05-22T21:23:25.635Z,17.57
2019-05-22T21:25:55.268Z,15.00
2019-05-22T21:28:24.538Z,15.70
2019-05-22T21:30:55.469Z,14.33
2019-05-22T21:33:25.291Z,20.83
2019-05-22T21:35:54.862Z,15.23
2019-05-22T21:38:24.675Z,14.63
2019-05-22T21:40:56.360Z,15.77
2019-05-22T21:43:25.774Z,15.43
2019-05-22T21:45:54.937Z,17.20
2019-05-22T21:48:24.868Z,16.40
2019-05-22T21:50:54.153Z,17.20
2019-05-22T21:53:23.295Z,18.17
2019-05-22T21:56:04.025Z,15.17
2019-05-22T21:58:24.497Z,16.83
2019-05-22T22:01:28.072Z,14.17
2019-05-22T22:04:18.058Z,16.60
2019-05-22T22:06:47.837Z,17.33
2019-05-22T22:09:18.417Z,19.23
2019-05-22T22:11:48.410Z,15.63
2019-05-22T22:14:18.041Z,17.47
2019-05-22T22:16:47.661Z,15.43
2019-05-22T22:19:18.377Z,17.63
2019-05-22T22:21:47.932Z,15.20
2019-05-22T22:24:17.437Z,14.23
2019-05-22T22:26:46.836Z,14.90
2019-05-22T22:29:16.275Z,13.50
2019-05-22T22:31:46.886Z,16.43
2019-05-22T22:34:27.590Z,17.13
2019-05-22T22:36:57.433Z,15.77
2019-05-22T22:39:27.658Z,15.80
2019-05-22T22:41:59.407Z,13.23
2019-05-22T22:44:29.684Z,15.53
2019-05-22T22:47:05.630Z,19.13
2019-05-22T22:49:35.506Z,14.07
2019-05-22T22:52:08.520Z,19.33
2019-05-22T22:54:38.567Z,15.83
2019-05-22T22:57:09.453Z,16.83
2019-05-22T22:59:38.620Z,19.97
2019-05-22T23:02:12.053Z,16.30
2019-05-22T23:04:42.434Z,18.43
2019-05-22T23:07:13.305Z,16.63
2019-05-22T23:09:44.104Z,21.43
2019-05-22T23:12:13.952Z,16.60
2019-05-22T23:14:50.644Z,17.83
2019-05-22T23:17:20.366Z,16.70
2019-05-22T23:19:47.832Z,16.03
2019-05-22T23:22:27.256Z,15.13
2019-05-22T23:24:57.320Z,14.83
2019-05-22T23:27:29.123Z,14.40
2019-05-22T23:29:59.778Z,17.43
2019-05-22T23:32:29.402Z,16.00
2019-05-22T23:35:00.740Z,15.87
2019-05-22T23:37:32.308Z,13.10
2019-05-22T23:40:02.690Z,16.17
2019-05-22T23:42:39.564Z,15.07
2019-05-22T23:45:12.866Z,14.63
2019-05-22T23:47:58.903Z,14.83
2019-05-22T23:50:28.423Z,14.47
2019-05-22T23:52:58.387Z,16.27
2019-05-22T23:55:27.578Z,18.43
2019-05-22T23:57:56.730Z,18.27
